createdAt,value
2019-03-19T00:00:50.674Z,91.50
2019-03-19T00:03:18.190Z,91.30
2019-03-19T00:05:45.709Z,91.00
2019-03-19T00:08:13.305Z,91.10
2019-03-19T00:10:41.897Z,91.40
2019-03-19T00:13:10.546Z,91.50
2019-03-19T00:15:38.185Z,91.60
2019-03-19T00:18:05.696Z,91.70
2019-03-19T00:20:33.221Z,91.70
2019-03-19T00:23:00.757Z,91.70
2019-03-19T00:25:30.420Z,91.70
2019-03-19T00:27:57.779Z,91.80
2019-03-19T00:30:25.369Z,91.90
2019-03-19T00:32:53.034Z,91.80
2019-03-19T00:35:20.601Z,91.80
2019-03-19T00:37:48.453Z,91.40
2019-03-19T00:40:15.999Z,91.50
2019-03-19T00:42:43.520Z,91.10
2019-03-19T00:45:11.132Z,90.50
2019-03-19T00:47:38.943Z,90.50
2019-03-19T00:50:07.152Z,90.70
2019-03-19T00:52:34.926Z,90.70
2019-03-19T00:55:02.475Z,90.50
2019-03-19T00:57:29.935Z,91.00
2019-03-19T00:59:57.494Z,91.70
2019-03-19T01:02:26.100Z,91.90
2019-03-19T01:04:53.616Z,92.10
2019-03-19T01:07:21.110Z,92.20
2019-03-19T01:09:48.715Z,92.10
2019-03-19T01:12:16.278Z,92.10
2019-03-19T01:14:43.943Z,91.90
2019-03-19T01:17:11.398Z,90.60
2019-03-19T01:19:38.979Z,90.80
2019-03-19T01:22:06.449Z,91.10
2019-03-19T01:24:34.094Z,91.20
2019-03-19T01:27:01.587Z,90.50
2019-03-19T01:29:29.121Z,90.30
2019-03-19T01:31:56.667Z,90.40
2019-03-19T01:34:24.393Z,90.20
2019-03-19T01:36:52.409Z,90.40
2019-03-19T01:39:20.074Z,90.80
2019-03-19T01:41:47.686Z,90.90
2019-03-19T01:44:15.202Z,90.90
2019-03-19T01:46:42.779Z,91.00
2019-03-19T01:49:10.430Z,91.10
2019-03-19T01:51:38.265Z,91.40
2019-03-19T01:54:05.946Z,91.50
2019-03-19T01:56:33.571Z,91.30
2019-03-19T01:59:01.295Z,91.00
2019-03-19T02:01:28.997Z,91.20
2019-03-19T02:03:56.753Z,91.70
2019-03-19T02:06:24.536Z,91.90
2019-03-19T02:08:52.230Z,92.00
2019-03-19T02:11:19.886Z,91.70
2019-03-19T02:13:47.462Z,91.50
2019-03-19T02:16:15.918Z,91.00
2019-03-19T02:18:43.582Z,91.00
2019-03-19T02:21:11.249Z,91.10
2019-03-19T02:23:38.890Z,90.90
2019-03-19T02:26:15.879Z,91.00
2019-03-19T02:28:36.130Z,90.90
2019-03-19T02:31:04.805Z,90.80
2019-03-19T02:33:32.604Z,91.10
2019-03-19T02:36:00.292Z,91.40
2019-03-19T02:38:27.830Z,91.30
2019-03-19T02:40:55.586Z,91.10
2019-03-19T02:43:23.182Z,91.30
2019-03-19T02:45:51.855Z,91.70
2019-03-19T02:48:20.510Z,91.80
2019-03-19T02:50:48.133Z,91.60
2019-03-19T02:53:16.022Z,91.20
2019-03-19T02:55:44.004Z,91.40
2019-03-19T02:58:12.844Z,91.50
2019-03-19T03:00:40.555Z,91.60
2019-03-19T03:03:08.096Z,91.50
2019-03-19T03:05:35.709Z,91.40
2019-03-19T03:08:03.298Z,91.30
2019-03-19T03:10:30.864Z,91.30
2019-03-19T03:12:58.505Z,91.10
2019-03-19T03:15:26.190Z,90.90
2019-03-19T03:17:54.043Z,90.90
2019-03-19T03:20:21.767Z,90.80
2019-03-19T03:22:49.599Z,90.50
2019-03-19T03:25:17.458Z,90.30
2019-03-19T03:27:45.431Z,90.40
2019-03-19T03:30:13.196Z,91.00
2019-03-19T03:32:40.989Z,90.80
2019-03-19T03:35:08.937Z,90.70
2019-03-19T03:37:37.000Z,90.50
2019-03-19T03:40:06.307Z,91.20
2019-03-19T03:42:34.018Z,91.70
2019-03-19T03:45:01.591Z,92.10
2019-03-19T03:47:29.290Z,92.20
2019-03-19T03:49:57.110Z,92.40
2019-03-19T03:52:24.593Z,92.30
2019-03-19T03:54:52.150Z,92.20
2019-03-19T03:57:19.582Z,92.30
2019-03-19T03:59:47.089Z,92.40
2019-03-19T04:02:14.917Z,92.20
2019-03-19T04:04:42.504Z,91.90
2019-03-19T04:07:10.032Z,91.50
2019-03-19T04:09:37.631Z,91.30
2019-03-19T04:12:05.363Z,91.00
2019-03-19T04:14:32.886Z,91.00
2019-03-19T04:17:00.344Z,91.30
2019-03-19T04:19:28.044Z,91.00
2019-03-19T04:21:55.754Z,90.80
2019-03-19T04:24:23.332Z,90.70
2019-03-19T04:26:50.997Z,90.90
2019-03-19T04:29:18.800Z,91.20
2019-03-19T04:31:46.264Z,91.40
2019-03-19T04:34:13.841Z,91.30
2019-03-19T04:36:41.358Z,91.50
2019-03-19T04:39:08.996Z,91.00
2019-03-19T04:41:36.591Z,90.90
2019-03-19T04:44:04.290Z,90.80
2019-03-19T04:46:31.881Z,91.20
2019-03-19T04:48:59.578Z,91.30
2019-03-19T04:51:27.204Z,90.90
2019-03-19T04:53:54.916Z,90.90
2019-03-19T04:56:23.473Z,91.20
2019-03-19T04:58:51.053Z,91.40
2019-03-19T05:01:19.021Z,91.90
2019-03-19T05:03:46.553Z,92.10
2019-03-19T05:06:14.321Z,92.10
2019-03-19T05:08:41.805Z,92.10
2019-03-19T05:11:09.296Z,91.70
2019-03-19T05:13:36.911Z,91.40
2019-03-19T05:16:04.445Z,91.30
2019-03-19T05:18:32.114Z,91.30
2019-03-19T05:20:59.557Z,91.30
2019-03-19T05:23:27.286Z,91.70
2019-03-19T05:25:54.914Z,91.80
2019-03-19T05:28:22.489Z,92.20
2019-03-19T05:30:50.881Z,92.20
2019-03-19T05:33:19.560Z,92.40
2019-03-19T05:35:47.216Z,92.20
2019-03-19T05:38:14.658Z,92.00
2019-03-19T05:40:42.280Z,92.00
2019-03-19T05:43:09.929Z,92.00
2019-03-19T05:45:37.498Z,91.80
2019-03-19T05:48:04.999Z,91.70
2019-03-19T05:50:32.433Z,91.60
2019-03-19T05:52:59.943Z,91.60
2019-03-19T05:55:27.815Z,91.40
2019-03-19T05:57:56.799Z,91.40
2019-03-19T06:00:25.611Z,91.40
2019-03-19T06:02:53.224Z,91.50
2019-03-19T06:05:21.285Z,91.40
2019-03-19T06:07:49.362Z,91.40
2019-03-19T06:10:16.992Z,91.40
2019-03-19T06:12:44.593Z,91.40
2019-03-19T06:15:12.441Z,90.80
2019-03-19T06:17:39.966Z,90.20
2019-03-19T06:20:08.431Z,90.40
2019-03-19T06:22:35.873Z,90.80
2019-03-19T06:25:03.904Z,90.90
2019-03-19T06:27:31.494Z,91.70
2019-03-19T06:29:59.107Z,90.50
2019-03-19T06:32:26.607Z,86.90
2019-03-19T06:34:54.169Z,81.70
2019-03-19T06:37:21.732Z,75.20
2019-03-19T06:39:50.835Z,69.10
2019-03-19T06:42:18.626Z,63.70
2019-03-19T06:44:46.104Z,60.10
2019-03-19T06:47:13.574Z,59.00
2019-03-19T06:49:41.032Z,59.60
2019-03-19T06:52:08.550Z,60.90
2019-03-19T06:54:36.005Z,62.70
2019-03-19T06:57:03.496Z,63.10
2019-03-19T06:59:30.954Z,62.20
2019-03-19T07:01:58.544Z,57.80
2019-03-19T07:04:26.242Z,54.80
2019-03-19T07:06:53.960Z,51.70
2019-03-19T07:09:21.554Z,47.80
2019-03-19T07:11:49.012Z,44.30
2019-03-19T07:14:16.517Z,40.90
2019-03-19T07:16:44.042Z,37.30
2019-03-19T07:19:11.517Z,34.20
2019-03-19T07:21:38.974Z,33.10
2019-03-19T07:24:06.520Z,30.10
2019-03-19T07:26:34.143Z,29.00
2019-03-19T07:29:01.684Z,27.80
2019-03-19T07:31:31.144Z,26.60
2019-03-19T07:33:59.653Z,26.10
2019-03-19T07:36:27.336Z,25.20
2019-03-19T07:38:54.975Z,24.40
2019-03-19T07:41:22.614Z,25.10
2019-03-19T07:43:50.345Z,26.70
2019-03-19T07:46:17.880Z,28.60
2019-03-19T07:48:45.393Z,29.00
2019-03-19T07:51:12.882Z,31.00
2019-03-19T07:53:40.421Z,32.50
2019-03-19T07:56:08.113Z,35.70
2019-03-19T07:58:44.852Z,37.70
2019-03-19T08:01:05.068Z,40.00
2019-03-19T08:03:32.561Z,41.20
2019-03-19T08:06:00.090Z,39.70
2019-03-19T08:08:27.697Z,36.80
2019-03-19T08:10:55.305Z,34.20
2019-03-19T08:13:22.881Z,30.60
2019-03-19T08:15:50.506Z,29.20
2019-03-19T08:18:18.215Z,26.40
2019-03-19T08:20:45.982Z,24.80
2019-03-19T08:23:13.712Z,22.50
2019-03-19T08:25:41.154Z,22.50
2019-03-19T08:28:08.882Z,23.50
2019-03-19T08:30:36.413Z,22.50
2019-03-19T08:33:04.083Z,23.10
2019-03-19T08:35:31.970Z,20.90
2019-03-19T08:37:59.830Z,19.10
2019-03-19T08:40:27.593Z,19.10
2019-03-19T08:42:55.343Z,17.00
2019-03-19T08:45:23.054Z,16.70
2019-03-19T08:47:54.108Z,16.00
2019-03-19T08:50:21.831Z,15.30
2019-03-19T08:52:49.706Z,15.90
2019-03-19T08:55:17.557Z,16.70
2019-03-19T08:57:46.357Z,16.50
2019-03-19T09:00:16.039Z,15.30
2019-03-19T09:02:43.932Z,15.70
2019-03-19T09:05:14.430Z,16.40
2019-03-19T09:07:43.656Z,17.00
2019-03-19T09:10:12.795Z,17.60
2019-03-19T09:12:40.694Z,17.10
2019-03-19T09:15:11.227Z,16.00
2019-03-19T09:17:40.259Z,15.50
2019-03-19T09:20:11.766Z,14.40
2019-03-19T09:22:39.515Z,14.20
2019-03-19T09:25:10.701Z,15.30
2019-03-19T09:27:38.359Z,16.70
2019-03-19T09:30:08.041Z,16.00
2019-03-19T09:32:35.630Z,14.90
2019-03-19T09:35:03.470Z,13.50
2019-03-19T09:37:31.001Z,12.30
2019-03-19T09:39:58.799Z,11.30
2019-03-19T09:42:26.312Z,11.50
2019-03-19T09:44:58.353Z,10.10
2019-03-19T09:47:23.792Z,10.20
2019-03-19T09:49:51.572Z,10.20
2019-03-19T09:52:19.467Z,10.00
2019-03-19T09:54:47.077Z,9.90
2019-03-19T09:57:14.754Z,9.70
2019-03-19T09:59:44.579Z,9.20
2019-03-19T10:02:14.315Z,8.20
2019-03-19T10:04:43.792Z,7.30
2019-03-19T10:07:11.786Z,7.30
2019-03-19T10:09:39.759Z,7.30
2019-03-19T10:12:07.413Z,6.80
2019-03-19T10:14:34.973Z,6.20
2019-03-19T10:17:02.517Z,6.60
2019-03-19T10:19:30.615Z,6.40
2019-03-19T10:21:58.169Z,5.10
2019-03-19T10:24:25.792Z,5.60
2019-03-19T10:26:53.488Z,6.30
2019-03-19T10:29:20.995Z,7.10
2019-03-19T10:31:48.491Z,8.10
2019-03-19T10:34:15.984Z,7.30
2019-03-19T10:36:43.754Z,7.00
2019-03-19T10:39:12.583Z,7.10
2019-03-19T10:41:40.081Z,6.00
2019-03-19T10:44:07.677Z,5.80
2019-03-19T10:46:35.352Z,5.30
2019-03-19T10:49:02.866Z,6.20
2019-03-19T10:51:30.790Z,7.70
2019-03-19T10:54:01.061Z,8.20
2019-03-19T10:56:28.640Z,7.60
2019-03-19T10:58:56.144Z,6.00
2019-03-19T11:01:24.589Z,5.60
2019-03-19T11:03:52.242Z,4.80
2019-03-19T11:06:20.015Z,5.10
2019-03-19T11:08:47.477Z,4.70
2019-03-19T11:11:15.097Z,4.60
2019-03-19T11:13:42.621Z,5.30
2019-03-19T11:16:10.194Z,6.70
2019-03-19T11:18:37.663Z,7.80
2019-03-19T11:21:05.121Z,9.50
2019-03-19T11:23:33.945Z,10.60
2019-03-19T11:26:01.497Z,13.10
2019-03-19T11:28:34.215Z,15.40
2019-03-19T11:31:01.731Z,16.30
2019-03-19T11:33:32.681Z,18.60
2019-03-19T11:36:00.257Z,21.20
2019-03-19T11:38:27.743Z,23.40
2019-03-19T11:40:55.327Z,25.00
2019-03-19T11:43:22.818Z,25.40
2019-03-19T11:45:50.249Z,26.40
2019-03-19T11:48:17.704Z,26.80
2019-03-19T11:50:46.215Z,27.70
2019-03-19T11:53:16.810Z,28.50
2019-03-19T11:55:44.438Z,28.20
2019-03-19T11:58:11.950Z,28.50
2019-03-19T12:00:46.168Z,27.50
2019-03-19T12:03:16.401Z,23.10
2019-03-19T12:05:43.229Z,17.40
2019-03-19T12:08:10.962Z,14.00
2019-03-19T12:10:38.523Z,10.80
2019-03-19T12:13:05.970Z,9.70
2019-03-19T12:15:41.211Z,9.00
2019-03-19T12:18:08.687Z,8.40
2019-03-19T12:20:36.141Z,8.80
2019-03-19T12:23:04.086Z,9.90
2019-03-19T12:25:35.650Z,11.60
2019-03-19T12:28:04.695Z,13.70
2019-03-19T12:30:32.132Z,15.00
2019-03-19T12:33:00.604Z,16.30
2019-03-19T12:35:30.504Z,18.00
2019-03-19T12:37:57.531Z,18.80
2019-03-19T12:40:35.940Z,19.40
2019-03-19T12:42:54.534Z,19.70
2019-03-19T12:45:22.038Z,16.10
2019-03-19T12:47:52.206Z,15.40
2019-03-19T12:50:19.833Z,13.50
2019-03-19T12:52:48.307Z,11.10
2019-03-19T12:55:15.848Z,9.50
2019-03-19T12:57:43.478Z,8.50
2019-03-19T13:00:15.574Z,7.50
2019-03-19T13:02:43.179Z,7.10
2019-03-19T13:05:10.653Z,6.30
2019-03-19T13:07:38.274Z,5.70
2019-03-19T13:10:07.144Z,5.60
2019-03-19T13:12:34.959Z,5.00
2019-03-19T13:15:02.598Z,4.90
2019-03-19T13:17:31.491Z,4.60
2019-03-19T13:19:59.150Z,3.50
2019-03-19T13:22:26.910Z,3.50
2019-03-19T13:24:54.603Z,3.90
2019-03-19T13:27:22.289Z,3.40
2019-03-19T13:29:49.821Z,3.20
2019-03-19T13:32:17.603Z,4.00
2019-03-19T13:34:46.465Z,3.90
2019-03-19T13:37:14.167Z,3.80
2019-03-19T13:39:42.114Z,3.70
2019-03-19T13:42:09.720Z,4.60
2019-03-19T13:44:37.420Z,5.00
2019-03-19T13:47:04.849Z,5.50
2019-03-19T13:49:32.443Z,5.10
2019-03-19T13:52:00.155Z,5.20
2019-03-19T13:54:27.922Z,5.60
2019-03-19T13:56:55.894Z,5.30
2019-03-19T13:59:23.504Z,5.50
2019-03-19T14:01:50.961Z,5.50
2019-03-19T14:04:20.957Z,6.80
2019-03-19T14:06:48.023Z,7.30
2019-03-19T14:09:15.609Z,7.20
2019-03-19T14:11:43.093Z,6.90
2019-03-19T14:14:10.587Z,5.80
2019-03-19T14:16:38.216Z,5.70
2019-03-19T14:19:05.978Z,5.30
2019-03-19T14:21:33.650Z,5.00
2019-03-19T14:24:02.248Z,4.40
2019-03-19T14:26:29.804Z,4.40
2019-03-19T14:28:57.358Z,3.70
2019-03-19T14:31:24.858Z,3.70
2019-03-19T14:33:52.396Z,3.80
2019-03-19T14:36:19.991Z,4.10
2019-03-19T14:38:47.545Z,3.90
2019-03-19T14:41:15.354Z,4.90
2019-03-19T14:43:43.019Z,5.00
2019-03-19T14:46:10.648Z,6.00
2019-03-19T14:48:38.170Z,6.20
2019-03-19T14:51:05.653Z,6.30
2019-03-19T14:53:33.288Z,5.80
2019-03-19T14:56:00.794Z,5.40
2019-03-19T14:58:28.371Z,5.20
2019-03-19T15:00:56.972Z,5.00
2019-03-19T15:03:24.573Z,5.30
2019-03-19T15:05:52.080Z,5.40
2019-03-19T15:08:19.936Z,4.70
2019-03-19T15:10:47.893Z,5.30
2019-03-19T15:13:15.477Z,5.00
2019-03-19T15:15:43.022Z,5.10
2019-03-19T15:18:10.686Z,6.60
2019-03-19T15:20:38.308Z,6.00
2019-03-19T15:23:05.945Z,7.90
2019-03-19T15:25:33.661Z,7.60
2019-03-19T15:28:01.254Z,7.00
2019-03-19T15:30:28.842Z,7.40
2019-03-19T15:32:56.521Z,8.00
2019-03-19T15:35:24.176Z,7.80
2019-03-19T15:37:53.208Z,8.60
2019-03-19T15:40:20.925Z,8.40
2019-03-19T15:42:48.494Z,9.10
2019-03-19T15:45:16.006Z,8.90
2019-03-19T15:47:44.572Z,9.00
2019-03-19T15:50:13.147Z,9.90
2019-03-19T15:52:40.754Z,9.60
2019-03-19T15:55:08.503Z,9.10
2019-03-19T15:57:35.990Z,9.50
2019-03-19T16:00:04.724Z,9.60
2019-03-19T16:02:32.373Z,10.30
2019-03-19T16:05:00.385Z,9.60
2019-03-19T16:07:27.870Z,9.30
2019-03-19T16:09:55.435Z,10.30
2019-03-19T16:12:23.251Z,9.50
2019-03-19T16:14:50.829Z,9.40
2019-03-19T16:17:18.310Z,9.20
2019-03-19T16:19:45.829Z,10.40
2019-03-19T16:22:13.707Z,11.00
2019-03-19T16:24:43.584Z,13.20
2019-03-19T16:27:11.119Z,14.20
2019-03-19T16:29:38.594Z,15.00
2019-03-19T16:32:06.219Z,17.50
2019-03-19T16:34:33.814Z,18.10
2019-03-19T16:37:01.356Z,17.50
2019-03-19T16:39:31.051Z,18.80
2019-03-19T16:42:00.761Z,19.10
2019-03-19T16:44:28.206Z,19.50
2019-03-19T16:46:55.791Z,19.00
2019-03-19T16:49:23.278Z,18.60
2019-03-19T16:51:50.940Z,18.60
2019-03-19T16:54:18.415Z,18.80
2019-03-19T16:56:48.605Z,19.60
2019-03-19T16:59:16.255Z,19.60
2019-03-19T17:01:43.987Z,20.20
2019-03-19T17:04:11.703Z,21.30
2019-03-19T17:06:40.322Z,22.30
2019-03-19T17:09:07.912Z,22.80
2019-03-19T17:11:35.461Z,23.30
2019-03-19T17:14:03.412Z,23.20
2019-03-19T17:16:31.147Z,23.80
2019-03-19T17:18:58.855Z,24.50
2019-03-19T17:21:26.406Z,25.00
2019-03-19T17:23:54.330Z,25.80
2019-03-19T17:26:21.924Z,26.40
2019-03-19T17:28:49.481Z,27.30
2019-03-19T17:31:17.030Z,27.80
2019-03-19T17:33:44.834Z,28.60
2019-03-19T17:36:12.625Z,29.50
2019-03-19T17:38:40.476Z,29.50
2019-03-19T17:41:08.041Z,31.80
2019-03-19T17:43:35.801Z,31.90
2019-03-19T17:46:03.801Z,32.20
2019-03-19T17:48:31.560Z,33.30
2019-03-19T17:50:59.114Z,33.10
2019-03-19T17:53:27.006Z,34.50
2019-03-19T17:55:56.266Z,35.70
2019-03-19T17:58:24.188Z,36.00
2019-03-19T18:00:51.944Z,36.50
2019-03-19T18:03:19.753Z,36.90
2019-03-19T18:05:47.898Z,38.20
2019-03-19T18:08:15.724Z,38.20
2019-03-19T18:10:43.465Z,40.10
2019-03-19T18:13:11.068Z,41.10
2019-03-19T18:15:38.827Z,42.00
2019-03-19T18:18:06.723Z,44.90
2019-03-19T18:20:35.204Z,44.40
2019-03-19T18:23:02.909Z,45.60
2019-03-19T18:25:31.589Z,46.50
2019-03-19T18:27:59.100Z,46.70
2019-03-19T18:30:26.594Z,47.50
2019-03-19T18:32:54.110Z,48.80
2019-03-19T18:35:21.728Z,49.70
2019-03-19T18:37:49.254Z,50.00
2019-03-19T18:40:16.926Z,51.30
2019-03-19T18:42:44.565Z,51.10
2019-03-19T18:45:12.163Z,51.60
2019-03-19T18:47:39.912Z,53.50
2019-03-19T18:50:09.440Z,54.80
2019-03-19T18:52:36.963Z,54.60
2019-03-19T18:55:05.209Z,55.80
2019-03-19T18:57:32.719Z,55.70
2019-03-19T19:00:00.463Z,55.80
2019-03-19T19:02:27.967Z,56.40
2019-03-19T19:04:55.539Z,56.40
2019-03-19T19:07:23.297Z,56.70
2019-03-19T19:09:50.861Z,57.40
2019-03-19T19:12:19.705Z,57.80
2019-03-19T19:14:47.375Z,57.70
2019-03-19T19:17:16.098Z,57.80
2019-03-19T19:19:45.964Z,57.70
2019-03-19T19:22:13.646Z,59.00
2019-03-19T19:24:41.230Z,59.30
2019-03-19T19:27:08.954Z,59.80
2019-03-19T19:29:36.630Z,59.30
2019-03-19T19:32:04.240Z,59.90
2019-03-19T19:34:32.460Z,60.10
2019-03-19T19:37:00.783Z,60.90
2019-03-19T19:39:29.531Z,61.40
2019-03-19T19:41:57.161Z,62.30
2019-03-19T19:44:24.883Z,62.70
2019-03-19T19:46:54.099Z,63.70
2019-03-19T19:49:22.181Z,63.50
2019-03-19T19:51:50.078Z,63.10
2019-03-19T19:54:18.057Z,61.00
2019-03-19T19:56:46.295Z,61.20
2019-03-19T19:59:14.651Z,62.00
2019-03-19T20:01:42.666Z,62.70
2019-03-19T20:04:10.673Z,62.00
2019-03-19T20:06:38.407Z,62.00
2019-03-19T20:09:06.974Z,62.50
2019-03-19T20:11:35.048Z,63.70
2019-03-19T20:14:03.417Z,64.00
2019-03-19T20:16:31.007Z,64.80
2019-03-19T20:18:58.890Z,65.00
2019-03-19T20:21:26.608Z,65.70
2019-03-19T20:23:54.944Z,66.40
2019-03-19T20:26:22.798Z,67.20
2019-03-19T20:28:50.452Z,67.90
2019-03-19T20:31:18.833Z,67.90
2019-03-19T20:33:46.734Z,68.70
2019-03-19T20:36:14.447Z,68.70
2019-03-19T20:38:42.928Z,69.40
2019-03-19T20:41:10.610Z,69.40
2019-03-19T20:43:38.583Z,70.00
2019-03-19T20:46:06.550Z,70.00
2019-03-19T20:48:36.015Z,70.00
2019-03-19T20:51:04.103Z,70.00
2019-03-19T20:53:31.710Z,70.00
2019-03-19T20:56:00.171Z,69.80
2019-03-19T20:58:28.061Z,70.00
2019-03-19T21:00:55.864Z,70.50
2019-03-19T21:03:23.456Z,70.70
2019-03-19T21:05:51.474Z,71.50
2019-03-19T21:08:19.422Z,72.00
2019-03-19T21:10:47.585Z,72.60
2019-03-19T21:13:15.595Z,73.00
2019-03-19T21:15:43.190Z,73.20
2019-03-19T21:18:10.954Z,73.00
2019-03-19T21:20:41.083Z,73.30
2019-03-19T21:23:09.170Z,73.20
2019-03-19T21:25:36.920Z,73.20
2019-03-19T21:28:13.975Z,73.30
2019-03-19T21:30:35.414Z,72.40
2019-03-19T21:33:03.345Z,72.60
2019-03-19T21:35:30.914Z,73.20
2019-03-19T21:37:59.154Z,74.50
2019-03-19T21:40:26.806Z,74.30
2019-03-19T21:42:54.954Z,74.80
2019-03-19T21:45:23.925Z,74.80
2019-03-19T21:47:51.653Z,74.80
2019-03-19T21:50:19.339Z,75.40
2019-03-19T21:52:46.899Z,75.60
2019-03-19T21:55:14.617Z,75.60
2019-03-19T21:57:43.293Z,76.10
2019-03-19T22:00:13.803Z,76.10
2019-03-19T22:02:41.565Z,76.90
2019-03-19T22:05:09.129Z,77.30
2019-03-19T22:07:36.790Z,77.30
2019-03-19T22:10:05.792Z,77.40
2019-03-19T22:12:33.586Z,77.40
2019-03-19T22:15:01.278Z,77.30
2019-03-19T22:17:29.060Z,76.90
2019-03-19T22:19:56.585Z,77.30
2019-03-19T22:22:24.112Z,77.60
2019-03-19T22:24:51.755Z,77.80
2019-03-19T22:27:19.258Z,77.80
2019-03-19T22:29:46.768Z,77.60
2019-03-19T22:32:14.277Z,77.40
2019-03-19T22:34:41.793Z,77.40
2019-03-19T22:37:09.357Z,77.60
2019-03-19T22:39:36.887Z,77.60
2019-03-19T22:42:04.485Z,78.20
2019-03-19T22:44:32.089Z,78.20
2019-03-19T22:46:59.664Z,78.40
2019-03-19T22:49:27.173Z,78.60
2019-03-19T22:51:54.729Z,78.60
2019-03-19T22:54:22.348Z,78.40
2019-03-19T22:56:49.804Z,78.40
2019-03-19T22:59:17.279Z,78.20
2019-03-19T23:01:44.846Z,78.40
2019-03-19T23:04:12.391Z,78.60
2019-03-19T23:06:39.958Z,78.70
2019-03-19T23:09:07.762Z,79.10
2019-03-19T23:11:35.952Z,79.50
2019-03-19T23:14:03.563Z,79.90
2019-03-19T23:16:31.170Z,80.00
2019-03-19T23:18:58.714Z,80.00
2019-03-19T23:21:26.218Z,80.00
2019-03-19T23:23:53.818Z,80.00
2019-03-19T23:26:21.539Z,80.20
2019-03-19T23:28:49.089Z,80.40
2019-03-19T23:31:16.601Z,80.40
2019-03-19T23:33:44.248Z,80.20
2019-03-19T23:36:12.012Z,80.00
2019-03-19T23:38:39.709Z,80.00
2019-03-19T23:41:07.309Z,80.20
2019-03-19T23:43:34.961Z,80.60
2019-03-19T23:46:02.560Z,80.40
2019-03-19T23:48:30.147Z,80.20
2019-03-19T23:50:57.657Z,80.20
2019-03-19T23:53:25.201Z,80.60
2019-03-19T23:55:52.784Z,80.80
2019-03-19T23:58:21.565Z,80.80
